Time;durP1;ratioP1;P1;durP2;ratioP2;P2;SDS_P1;SDS_P2;PMS_P1;PMS_P2;Temp;Humidity;BMP_temperature;BMP_pressure;BME280_temperature;BME280_humidity;BME280_pressure;Samples;Min_cycle;Max_cycle;Signal;HPM_P1;HPM_P2
2022/08/02 00:02:21;;;;;;;;;;;;;;;16.57;57.40;100370.53;5036312;28;1017;-58
2022/08/02 00:04:47;;;;;;;;;;;;;;;16.57;56.91;100376.03;5036075;28;990;-59
2022/08/02 00:07:13;;;;;;;;;;;;;;;16.55;56.54;100372.72;5036250;28;1080;-59
2022/08/02 00:09:39;;;;;;;;;;;;;;;16.53;56.41;100374.94;5036371;28;1042;-58
2022/08/02 00:12:04;;;;;;;;;;;;;;;16.44;56.42;100371.97;5036257;28;1988;-59
2022/08/02 00:14:30;;;;;;;;;;;;;;;16.41;56.54;100373.38;5036546;28;1021;-58
2022/08/02 00:16:55;;;;;;;;;;;;;;;16.39;56.21;100378.31;5036203;28;1120;-59
2022/08/02 00:19:21;;;;;;;;;;;;;;;16.35;56.37;100377.22;5036102;28;1137;-59
2022/08/02 00:21:46;;;;;;;;;;;;;;;16.34;56.23;100381.09;5036672;28;1096;-59
2022/08/02 00:24:11;;;;;;;;;;;;;;;16.32;56.33;100377.78;5036248;28;1187;-59
2022/08/02 00:26:37;;;;;;;;;;;;;;;16.29;56.28;100385.78;5035856;28;1085;-59
2022/08/02 00:29:02;;;;;;;;;;;;;;;16.25;56.37;100385.50;5035998;28;1175;-59
2022/08/02 00:31:28;;;;;;;;;;;;;;;16.28;56.26;100378.63;5035739;28;1977;-59
2022/08/02 00:33:53;;;;;;;;;;;;;;;17.28;57.41;100391.22;5036070;28;1128;-59
2022/08/02 00:36:19;;;;;;;;;;;;;;;17.00;57.82;100390.06;5036204;28;1076;-59
2022/08/02 00:38:45;;;;;;;;;;;;;;;16.72;57.99;100384.16;5036255;28;974;-59
2022/08/02 00:41:15;;;;;;;;;;;;;;;16.59;57.46;100382.03;5018678;28;1065;-58
2022/08/02 00:43:41;;;;;;;;;;;;;;;16.56;57.38;100385.34;5036063;28;958;-58
2022/08/02 00:46:06;;;;;;;;;;;;;;;16.51;56.83;100388.13;5036590;28;1116;-59
2022/08/02 00:48:32;;;;;;;;;;;;;;;16.43;57.06;100392.28;5036005;28;1053;-58
2022/08/02 00:50:57;;;;;;;;;;;;;;;16.42;56.64;100396.97;5035733;28;1982;-58
2022/08/02 00:53:23;;;;;;;;;;;;;;;16.46;56.33;100397.22;5035839;28;1112;-59
2022/08/02 00:55:48;;;;;;;;;;;;;;;16.39;56.39;100399.44;5039366;28;1057;-59
2022/08/02 00:58:13;;;;;;;;;;;;;;;16.38;56.69;100395.88;5040294;28;1168;-58
2022/08/02 01:00:39;;;;;;;;;;;;;;;16.35;56.45;100396.44;5039828;28;970;-58
2022/08/02 01:03:04;;;;;;;;;;;;;;;16.29;56.78;100404.97;5039622;28;1017;-59
2022/08/02 01:05:30;;;;;;;;;;;;;;;16.26;56.76;100403.63;5039829;28;1001;-58
2022/08/02 01:07:56;;;;;;;;;;;;;;;16.30;56.30;100407.44;5039167;28;1226;-58
2022/08/02 01:10:21;;;;;;;;;;;;;;;16.29;56.31;100415.97;5039689;28;1910;-58
2022/08/02 01:12:47;;;;;;;;;;;;;;;17.37;57.46;100407.88;5039750;28;1033;-58
2022/08/02 01:15:12;;;;;;;;;;;;;;;17.05;58.30;100409.22;5039258;28;1235;-58
2022/08/02 01:17:37;;;;;;;;;;;;;;;16.75;58.23;100408.31;5021529;28;1161;-57
2022/08/02 01:20:22;;;;;;;;;;;;;;;16.68;57.86;100413.28;5042086;28;1196;-58
2022/08/02 01:22:47;;;;;;;;;;;;;;;16.57;57.60;100403.47;5037634;28;974;-59
2022/08/02 01:25:22;;;;;;;;;;;;;;;16.56;57.12;100410.06;5039035;28;1009;-58
2022/08/02 01:27:51;;;;;;;;;;;;;;;16.49;56.96;100401.31;5037958;28;949;-59
2022/08/02 01:30:16;;;;;;;;;;;;;;;16.43;57.01;100404.06;5038830;28;1974;-59
2022/08/02 01:32:43;;;;;;;;;;;;;;;16.46;56.61;100399.94;5038597;28;1140;-59
2022/08/02 01:35:10;;;;;;;;;;;;;;;16.45;56.50;100405.72;5039050;28;1013;-58
2022/08/02 01:37:36;;;;;;;;;;;;;;;16.44;56.59;100407.66;5024294;28;1082;-59
2022/08/02 01:40:07;;;;;;;;;;;;;;;16.38;56.45;100415.09;5041261;28;1069;-58
2022/08/02 01:42:32;;;;;;;;;;;;;;;16.34;56.73;100407.69;5039019;28;1084;-59
2022/08/02 01:44:57;;;;;;;;;;;;;;;16.36;56.46;100403.56;5020978;28;947;-58
2022/08/02 01:47:25;;;;;;;;;;;;;;;16.30;56.50;100401.13;5020960;28;1077;-58
2022/08/02 01:49:51;;;;;;;;;;;;;;;16.29;56.39;100403.06;5024030;28;1168;-59
2022/08/02 01:52:22;;;;;;;;;;;;;;;16.29;56.34;100402.25;5018961;28;1395;-59
2022/08/02 01:54:53;;;;;;;;;;;;;;;17.51;57.23;100404.50;5022885;28;1221;-58
2022/08/02 01:57:19;;;;;;;;;;;;;;;17.04;58.16;100402.13;5038682;28;890;-58
2022/08/02 01:59:45;;;;;;;;;;;;;;;16.79;58.05;100394.84;5038786;28;954;-59
2022/08/02 02:02:10;;;;;;;;;;;;;;;16.63;57.72;100394.09;5038582;28;1005;-59
2022/08/02 02:04:36;;;;;;;;;;;;;;;16.58;57.30;100399.63;5020890;28;1097;-59
2022/08/02 02:07:01;;;;;;;;;;;;;;;16.52;57.35;100406.25;5019836;28;1073;-59
2022/08/02 02:09:28;;;;;;;;;;;;;;;16.52;56.88;100403.50;5020491;28;900;-59
2022/08/02 02:11:53;;;;;;;;;;;;;;;16.50;56.64;100402.97;5038566;28;1905;-59
2022/08/02 02:14:19;;;;;;;;;;;;;;;16.42;56.92;100415.34;5020722;28;1050;-59
2022/08/02 02:16:45;;;;;;;;;;;;;;;16.40;56.87;100415.63;5021005;28;1392;-58
2022/08/02 02:19:10;;;;;;;;;;;;;;;16.38;56.42;100408.78;5042205;28;990;-58
2022/08/02 02:21:36;;;;;;;;;;;;;;;16.39;56.47;100410.41;5020536;28;1007;-58
2022/08/02 02:24:01;;;;;;;;;;;;;;;16.38;56.20;100415.09;5038411;28;1128;-58
2022/08/02 02:26:27;;;;;;;;;;;;;;;16.30;56.34;100415.69;5020766;28;1081;-58
2022/08/02 02:28:52;;;;;;;;;;;;;;;16.48;56.95;100411.50;5020728;28;1204;-58
2022/08/02 02:31:18;;;;;;;;;;;;;;;17.50;57.63;100416.59;5038261;28;1955;-58
2022/08/02 02:33:50;;;;;;;;;;;;;;;16.91;58.00;100408.25;5035451;28;945;-59
2022/08/02 02:36:16;;;;;;;;;;;;;;;16.72;57.82;100417.13;5020211;28;1172;-57
2022/08/02 02:38:41;;;;;;;;;;;;;;;16.64;57.54;100417.72;5020510;28;959;-57
2022/08/02 02:41:07;;;;;;;;;;;;;;;16.56;57.42;100412.81;5038142;28;1112;-57
2022/08/02 02:43:33;;;;;;;;;;;;;;;16.54;57.29;100420.50;5020331;28;974;-57
2022/08/02 02:45:58;;;;;;;;;;;;;;;16.50;56.81;100420.25;5018543;28;1009;-58
2022/08/02 02:48:24;;;;;;;;;;;;;;;16.46;56.93;100412.88;5021137;28;1092;-59
2022/08/02 02:50:50;;;;;;;;;;;;;;;16.46;56.69;100418.34;5037591;28;1969;-59
2022/08/02 02:53:15;;;;;;;;;;;;;;;16.41;56.71;100431.00;5019514;28;1192;-59
2022/08/02 02:55:41;;;;;;;;;;;;;;;16.36;56.62;100416.47;5037447;28;1200;-59
2022/08/02 02:58:07;;;;;;;;;;;;;;;16.37;56.55;100427.16;5016837;28;1608;-57
2022/08/02 03:03:16;;;;;;;;;;;;;;;17.03;58.17;100427.94;5043658;28;1093;-57
2022/08/02 03:05:42;;;;;;;;;;;;;;;16.75;58.34;100424.78;5037791;28;1056;-57
2022/08/02 03:08:07;;;;;;;;;;;;;;;16.67;57.79;100428.13;5023957;28;1062;-58
2022/08/02 03:10:33;;;;;;;;;;;;;;;16.61;57.65;100429.25;5037527;28;1910;-61
2022/08/02 03:12:58;;;;;;;;;;;;;;;16.56;57.13;100434.75;5041151;28;994;-59
2022/08/02 03:15:25;;;;;;;;;;;;;;;16.55;57.07;100427.63;5019584;28;1093;-57
2022/08/02 03:17:51;;;;;;;;;;;;;;;16.48;57.04;100427.94;5037069;28;998;-58
2022/08/02 03:20:17;;;;;;;;;;;;;;;16.47;57.09;100437.28;5039779;28;1282;-59
2022/08/02 03:22:42;;;;;;;;;;;;;;;16.47;56.86;100430.97;5032585;28;1009;-59
2022/08/02 03:25:08;;;;;;;;;;;;;;;16.43;56.73;100425.22;5036961;28;1057;-59
2022/08/02 03:27:33;;;;;;;;;;;;;;;16.39;56.81;100426.88;5036992;28;1200;-58
2022/08/02 03:29:59;;;;;;;;;;;;;;;16.36;56.69;100428.25;5037206;28;1909;-56
2022/08/02 03:32:24;;;;;;;;;;;;;;;16.99;57.76;100428.81;5034433;28;1080;-59
2022/08/02 03:34:50;;;;;;;;;;;;;;;17.30;58.31;100434.06;5033679;28;1092;-59
2022/08/02 03:37:15;;;;;;;;;;;;;;;16.88;58.37;100437.09;5036232;28;1510;-59
2022/08/02 03:39:41;;;;;;;;;;;;;;;16.77;58.01;100435.47;5036298;28;1097;-61
2022/08/02 03:42:07;;;;;;;;;;;;;;;16.67;57.84;100441.84;5037099;28;1018;-57
2022/08/02 03:44:32;;;;;;;;;;;;;;;16.61;57.37;100442.97;5036552;28;1104;-57
2022/08/02 03:46:57;;;;;;;;;;;;;;;16.64;56.97;100445.16;5034149;28;1065;-58
2022/08/02 03:49:23;;;;;;;;;;;;;;;16.51;57.38;100443.00;5038474;28;1195;-58
2022/08/02 03:51:48;;;;;;;;;;;;;;;16.49;57.08;100437.00;5036623;28;1894;-63
2022/08/02 03:54:14;;;;;;;;;;;;;;;16.48;56.87;100438.94;5030164;28;1140;-59
2022/08/02 03:56:39;;;;;;;;;;;;;;;16.46;56.86;100441.13;5018855;28;1175;-59
2022/08/02 03:59:09;;;;;;;;;;;;;;;16.41;56.75;100441.97;5042258;28;1065;-59
2022/08/02 04:01:34;;;;;;;;;;;;;;;16.38;56.95;100445.28;5033433;28;1401;-63
2022/08/02 04:03:59;;;;;;;;;;;;;;;16.38;56.81;100450.78;5036448;28;1057;-65
2022/08/02 04:06:25;;;;;;;;;;;;;;;16.36;56.85;100447.47;5031224;28;1069;-66
2022/08/02 04:08:51;;;;;;;;;;;;;;;16.39;56.85;100446.09;5036093;28;1080;-65
2022/08/02 04:11:32;;;;;;;;;;;;;;;16.31;56.73;100450.22;5037332;28;1910;-66
2022/08/02 04:13:58;;;;;;;;;;;;;;;16.32;56.81;100451.88;5036025;28;871;-65
2022/08/02 04:16:36;;;;;;;;;;;;;;;16.29;56.98;100446.94;5033236;28;1124;-65
2022/08/02 04:19:02;;;;;;;;;;;;;;;16.33;56.47;100450.78;5020129;28;1022;-65
2022/08/02 04:21:30;;;;;;;;;;;;;;;16.61;57.14;100451.22;5034943;28;1089;-65
2022/08/02 04:23:55;;;;;;;;;;;;;;;17.55;57.76;100455.03;5035541;28;1176;-65
2022/08/02 04:26:21;;;;;;;;;;;;;;;17.01;58.52;100454.88;5017952;28;1116;-65
2022/08/02 04:28:46;;;;;;;;;;;;;;;16.72;58.30;100460.25;5017237;28;1176;-63
2022/08/02 04:31:12;;;;;;;;;;;;;;;16.71;58.01;100453.91;5014306;28;1910;-61
2022/08/02 04:33:38;;;;;;;;;;;;;;;16.64;57.63;100464.38;5013430;28;1073;-62
2022/08/02 04:36:04;;;;;;;;;;;;;;;16.57;57.49;100458.38;5001913;28;1197;-62
2022/08/02 04:38:29;;;;;;;;;;;;;;;16.60;57.18;100446.81;5035194;28;1124;-64
2022/08/02 04:40:55;;;;;;;;;;;;;;;16.52;57.23;100455.63;5035830;28;978;-64
2022/08/02 04:43:21;;;;;;;;;;;;;;;16.53;57.13;100457.28;5040928;28;982;-64
2022/08/02 04:45:55;;;;;;;;;;;;;;;16.49;57.13;100461.69;5034702;28;788;-67
2022/08/02 04:48:21;;;;;;;;;;;;;;;16.46;56.83;100448.53;5036006;28;978;-66
2022/08/02 04:50:47;;;;;;;;;;;;;;;16.44;57.01;100451.56;5040559;28;1955;-64
2022/08/02 04:53:12;;;;;;;;;;;;;;;16.43;56.67;100453.47;5034633;28;1616;-61
2022/08/02 04:55:38;;;;;;;;;;;;;;;16.38;56.92;100450.78;5033585;28;1028;-63
2022/08/02 04:58:03;;;;;;;;;;;;;;;16.39;56.72;100441.41;5030782;28;919;-66
2022/08/02 05:00:29;;;;;;;;;;;;;;;16.40;56.71;100448.56;5034294;28;1069;-68
2022/08/02 05:02:54;;;;;;;;;;;;;;;16.34;56.94;100441.44;5035716;28;1081;-68
2022/08/02 05:05:20;;;;;;;;;;;;;;;16.33;56.96;100441.75;5043266;28;1034;-65
2022/08/02 05:07:45;;;;;;;;;;;;;;;16.35;56.69;100445.00;5038696;28;1037;-65
2022/08/02 05:10:11;;;;;;;;;;;;;;;16.32;56.85;100431.84;5040842;28;1929;-65
2022/08/02 05:12:36;;;;;;;;;;;;;;;16.31;56.61;100436.50;5037778;28;1061;-64
2022/08/02 05:15:02;;;;;;;;;;;;;;;16.27;57.00;100437.34;5033751;28;1224;-62
2022/08/02 05:17:27;;;;;;;;;;;;;;;16.28;56.79;100434.31;5036084;28;1200;-62
2022/08/02 05:19:53;;;;;;;;;;;;;;;17.45;57.63;100434.75;5035951;28;1001;-61
2022/08/02 05:22:18;;;;;;;;;;;;;;;16.98;58.49;100429.91;5040913;28;1200;-61
2022/08/02 05:24:44;;;;;;;;;;;;;;;16.81;58.18;100431.06;5037161;28;1060;-63
2022/08/02 05:27:09;;;;;;;;;;;;;;;16.70;58.06;100438.53;5035646;28;1197;-63
2022/08/02 05:29:34;;;;;;;;;;;;;;;16.58;58.01;100432.56;5038730;28;1256;-63
2022/08/02 05:32:00;;;;;;;;;;;;;;;16.58;57.63;100432.56;5039344;28;1898;-62
2022/08/02 05:34:25;;;;;;;;;;;;;;;16.57;57.34;100437.22;5033799;28;899;-62
2022/08/02 05:36:51;;;;;;;;;;;;;;;16.55;57.27;100438.59;5034003;28;978;-62
2022/08/02 05:39:16;;;;;;;;;;;;;;;16.53;57.08;100438.06;5035986;28;1080;-63
2022/08/02 05:41:42;;;;;;;;;;;;;;;16.49;57.21;100437.00;5038410;28;1013;-63
2022/08/02 05:44:07;;;;;;;;;;;;;;;16.50;56.94;100446.88;5036527;28;1089;-62
2022/08/02 05:46:33;;;;;;;;;;;;;;;16.50;56.83;100441.41;5038354;28;958;-63
2022/08/02 05:48:58;;;;;;;;;;;;;;;16.94;56.98;100437.88;5038841;28;1065;-63
2022/08/02 05:51:42;;;;;;;;;;;;;;;18.56;52.66;100443.25;5037894;28;1991;-63
2022/08/02 05:54:13;;;;;;;;;;;;;;;17.24;54.86;100445.09;5038047;28;1196;-62
2022/08/02 05:56:42;;;;;;;;;;;;;;;18.13;54.64;100449.56;5037665;28;1164;-64
2022/08/02 05:59:20;;;;;;;;;;;;;;;16.00;59.72;100455.78;5034914;28;891;-63
2022/08/02 06:01:45;;;;;;;;;;;;;;;17.28;57.93;100459.09;5014022;28;1014;-63
2022/08/02 06:04:13;;;;;;;;;;;;;;;19.17;52.53;100459.25;5020203;28;1022;-62
2022/08/02 06:06:39;;;;;;;;;;;;;;;15.18;62.79;100466.75;5019752;28;974;-63
2022/08/02 06:09:08;;;;;;;;;;;;;;;17.25;57.77;100467.88;5020335;28;1181;-63
2022/08/02 06:11:35;;;;;;;;;;;;;;;16.89;58.26;100466.19;5037670;28;1918;-63
2022/08/02 06:14:01;;;;;;;;;;;;;;;16.41;62.53;100466.66;5037898;28;1041;-64
2022/08/02 06:16:27;;;;;;;;;;;;;;;19.09;54.51;100480.84;5037023;28;986;-62
2022/08/02 06:18:52;;;;;;;;;;;;;;;15.30;62.29;100480.19;5044479;28;1014;-64
2022/08/02 06:21:20;;;;;;;;;;;;;;;17.22;59.94;100484.94;5025644;28;1010;-62
2022/08/02 06:23:46;;;;;;;;;;;;;;;17.73;57.38;100478.25;5041311;28;990;-63
2022/08/02 06:26:12;;;;;;;;;;;;;;;15.08;63.26;100483.16;5039549;28;1026;-63
2022/08/02 06:28:37;;;;;;;;;;;;;;;18.16;58.05;100488.59;5019700;28;1070;-63
2022/08/02 06:31:04;;;;;;;;;;;;;;;15.38;62.98;100485.94;5037819;28;1914;-63
2022/08/02 06:33:30;;;;;;;;;;;;;;;17.25;61.20;100487.13;5037500;28;956;-62
2022/08/02 06:36:14;;;;;;;;;;;;;;;18.49;56.76;100488.78;5036434;28;1031;-63
2022/08/02 06:38:40;;;;;;;;;;;;;;;15.18;63.86;100481.28;5038009;28;946;-63
2022/08/02 06:41:06;;;;;;;;;;;;;;;16.86;57.50;100483.22;5037590;28;1085;-63
2022/08/02 06:43:31;;;;;;;;;;;;;;;17.99;57.93;100486.28;5042631;28;998;-63
2022/08/02 06:45:57;;;;;;;;;;;;;;;17.50;56.00;100485.31;5034880;28;1041;-63
2022/08/02 06:48:22;;;;;;;;;;;;;;;17.29;54.76;100493.69;5034618;28;1080;-64
2022/08/02 06:50:48;;;;;;;;;;;;;;;17.20;53.64;100482.50;5018985;28;1902;-63
2022/08/02 06:53:13;;;;;;;;;;;;;;;17.19;52.72;100485.53;5036759;28;1140;-62
2022/08/02 06:55:39;;;;;;;;;;;;;;;17.15;51.98;100484.47;5037124;28;1080;-63
2022/08/02 06:58:04;;;;;;;;;;;;;;;17.74;53.30;100486.22;5037187;28;1117;-63
2022/08/02 07:00:30;;;;;;;;;;;;;;;16.33;59.04;100474.66;5037065;28;1053;-63
2022/08/02 07:02:55;;;;;;;;;;;;;;;16.22;60.06;100498.56;5036996;28;967;-63
2022/08/02 07:05:21;;;;;;;;;;;;;;;18.68;57.14;100502.59;5036991;28;982;-62
2022/08/02 07:07:47;;;;;;;;;;;;;;;14.99;63.82;100493.84;5036468;28;1061;-62
2022/08/02 07:10:12;;;;;;;;;;;;;;;16.55;57.25;100493.50;5036555;28;1911;-62
2022/08/02 07:12:38;;;;;;;;;;;;;;;18.27;57.88;100498.38;5036886;28;906;-63
2022/08/02 07:15:04;;;;;;;;;;;;;;;14.81;64.04;100493.22;5036799;28;1148;-62
2022/08/02 07:17:30;;;;;;;;;;;;;;;18.01;60.07;100495.09;5036156;28;962;-62
2022/08/02 07:19:55;;;;;;;;;;;;;;;17.64;60.14;100480.78;5041527;28;1148;-63
2022/08/02 07:22:23;;;;;;;;;;;;;;;15.63;63.58;100487.06;5037606;28;1041;-62
2022/08/02 07:24:48;;;;;;;;;;;;;;;16.89;56.33;100485.44;5036477;28;1144;-63
2022/08/02 07:27:14;;;;;;;;;;;;;;;17.97;57.96;100500.34;5038408;28;1033;-63
2022/08/02 07:29:39;;;;;;;;;;;;;;;15.18;63.54;100491.38;5036515;28;1002;-62
2022/08/02 07:32:05;;;;;;;;;;;;;;;17.00;60.79;100497.19;5036398;28;1918;-63
2022/08/02 07:34:30;;;;;;;;;;;;;;;18.13;58.92;100501.84;5035992;28;1096;-62
2022/08/02 07:36:56;;;;;;;;;;;;;;;15.12;65.67;100501.50;5036116;28;1085;-62
2022/08/02 07:39:21;;;;;;;;;;;;;;;17.99;60.66;100505.56;5024524;28;1050;-62
2022/08/02 07:41:50;;;;;;;;;;;;;;;15.83;63.93;100494.47;5036168;28;1049;-62
2022/08/02 07:44:16;;;;;;;;;;;;;;;16.53;61.87;100490.22;5036275;28;1064;-62
2022/08/02 07:46:41;;;;;;;;;;;;;;;18.30;59.72;100503.31;5035489;28;1493;-62
2022/08/02 07:49:06;;;;;;;;;;;;;;;14.83;66.57;100501.16;5035734;28;1013;-62
2022/08/02 07:51:34;;;;;;;;;;;;;;;17.55;61.25;100496.28;5036374;28;1884;-62
2022/08/02 07:54:00;;;;;;;;;;;;;;;16.38;62.80;100494.69;5035976;28;1213;-62
2022/08/02 07:56:25;;;;;;;;;;;;;;;16.16;64.88;100495.00;5036911;28;1211;-62
2022/08/02 07:58:51;;;;;;;;;;;;;;;18.58;59.83;100500.78;5036552;28;1034;-63
2022/08/02 08:01:17;;;;;;;;;;;;;;;15.08;65.14;100494.94;5035970;28;1171;-62
2022/08/02 08:03:42;;;;;;;;;;;;;;;17.65;62.89;100496.19;5034683;28;958;-66
2022/08/02 08:06:08;;;;;;;;;;;;;;;17.39;61.66;100501.88;5035684;28;1060;-66
2022/08/02 08:08:34;;;;;;;;;;;;;;;15.51;64.68;100500.22;5041022;28;1116;-64
2022/08/02 08:10:59;;;;;;;;;;;;;;;17.18;58.75;100500.38;5035705;28;1906;-67
2022/08/02 08:13:24;;;;;;;;;;;;;;;17.94;58.87;100496.22;5044912;28;1006;-63
2022/08/02 08:15:50;;;;;;;;;;;;;;;17.65;56.78;100492.63;5040288;28;1037;-64
2022/08/02 08:18:15;;;;;;;;;;;;;;;17.51;54.77;100495.22;5037603;28;1041;-64
2022/08/02 08:20:41;;;;;;;;;;;;;;;17.40;53.70;100495.28;5039600;28;990;-64
2022/08/02 08:23:07;;;;;;;;;;;;;;;17.47;52.38;100502.38;5040019;28;1017;-62
2022/08/02 08:25:32;;;;;;;;;;;;;;;17.44;51.94;100488.09;5041481;28;1009;-65
2022/08/02 08:27:58;;;;;;;;;;;;;;;17.49;51.23;100489.16;5040750;28;962;-64
2022/08/02 08:30:23;;;;;;;;;;;;;;;17.36;50.94;100485.97;5037887;28;1918;-62
2022/08/02 08:32:49;;;;;;;;;;;;;;;18.13;53.24;100488.06;5039630;28;1160;-62
2022/08/02 08:35:14;;;;;;;;;;;;;;;15.24;61.86;100484.84;5036715;28;1049;-61
2022/08/02 08:37:40;;;;;;;;;;;;;;;17.90;58.20;100492.38;5037588;28;1207;-61
2022/08/02 08:40:06;;;;;;;;;;;;;;;18.38;59.33;100482.56;5037741;28;966;-62
2022/08/02 08:42:31;;;;;;;;;;;;;;;15.14;66.31;100490.31;5038858;28;1117;-64
2022/08/02 08:44:57;;;;;;;;;;;;;;;17.01;56.82;100485.09;5036387;28;1148;-60
2022/08/02 08:47:22;;;;;;;;;;;;;;;17.24;54.41;100478.06;5035442;28;1109;-62
2022/08/02 08:49:49;;;;;;;;;;;;;;;17.33;52.71;100485.72;5041301;28;1014;-62
2022/08/02 08:52:14;;;;;;;;;;;;;;;18.43;55.59;100483.34;5023872;28;1987;-62
2022/08/02 08:54:39;;;;;;;;;;;;;;;15.33;64.65;100485.97;5022584;28;1101;-61
2022/08/02 08:57:05;;;;;;;;;;;;;;;18.58;58.88;100476.00;5039796;28;954;-61
2022/08/02 08:59:30;;;;;;;;;;;;;;;16.96;62.75;100481.53;5042007;28;1129;-64
2022/08/02 09:01:56;;;;;;;;;;;;;;;15.62;64.58;100466.22;5018353;28;998;-63
2022/08/02 09:04:21;;;;;;;;;;;;;;;17.10;56.56;100485.31;5019742;28;1026;-63
2022/08/02 09:06:47;;;;;;;;;;;;;;;17.25;53.97;100470.63;5036303;28;990;-64
2022/08/02 09:09:12;;;;;;;;;;;;;;;17.31;52.79;100487.94;5039881;28;1097;-63
2022/08/02 09:11:38;;;;;;;;;;;;;;;17.28;52.03;100472.84;5039182;28;1902;-63
2022/08/02 09:14:03;;;;;;;;;;;;;;;18.15;54.77;100490.53;5043395;28;1010;-64
2022/08/02 09:16:35;;;;;;;;;;;;;;;15.21;63.13;100479.91;5045078;28;994;-62
2022/08/02 09:19:14;;;;;;;;;;;;;;;16.81;56.12;100468.69;5043095;28;978;-63
2022/08/02 09:21:40;;;;;;;;;;;;;;;17.18;53.30;100464.66;5026917;28;1002;-59
2022/08/02 09:24:14;;;;;;;;;;;;;;;17.29;52.05;100468.97;5047798;28;1029;-61
2022/08/02 09:26:39;;;;;;;;;;;;;;;17.84;53.08;100462.47;5043167;28;1120;-59
2022/08/02 09:29:05;;;;;;;;;;;;;;;15.60;60.87;100465.69;5010269;28;1166;-63
2022/08/02 09:31:30;;;;;;;;;;;;;;;17.69;59.12;100475.25;5024986;28;1914;-64
2022/08/02 09:33:56;;;;;;;;;;;;;;;19.18;57.10;100467.25;5023710;28;1158;-64
2022/08/02 09:36:22;;;;;;;;;;;;;;;15.06;65.08;100459.59;5041696;28;1026;-58
2022/08/02 09:39:00;;;;;;;;;;;;;;;17.31;58.89;100460.47;5039653;28;1120;-58
2022/08/02 09:41:29;;;;;;;;;;;;;;;15.95;63.48;100463.22;5035362;28;1356;-61
2022/08/02 09:43:55;;;;;;;;;;;;;;;17.52;62.48;100475.66;5041294;28;877;-63
2022/08/02 09:46:21;;;;;;;;;;;;;;;19.47;58.34;100469.81;5044115;28;974;-64
2022/08/02 09:48:47;;;;;;;;;;;;;;;15.34;65.32;100470.34;5037817;28;958;-65
2022/08/02 09:51:12;;;;;;;;;;;;;;;17.76;63.30;100478.47;5040968;28;1966;-66
2022/08/02 09:53:37;;;;;;;;;;;;;;;16.92;63.96;100462.88;5040001;28;1041;-64
2022/08/02 09:56:04;;;;;;;;;;;;;;;15.67;65.38;100466.25;5019918;28;1066;-61
2022/08/02 09:58:29;;;;;;;;;;;;;;;17.05;57.43;100475.16;5038205;28;1033;-64
2022/08/02 10:00:55;;;;;;;;;;;;;;;17.37;54.59;100456.56;5038060;28;934;-62
2022/08/02 10:03:21;;;;;;;;;;;;;;;17.44;53.31;100466.09;5041513;28;1132;-62
2022/08/02 10:05:47;;;;;;;;;;;;;;;17.47;52.38;100467.47;5039199;28;998;-61
2022/08/02 10:08:13;;;;;;;;;;;;;;;17.43;51.96;100461.72;5038195;28;1207;-61
2022/08/02 10:10:38;;;;;;;;;;;;;;;17.43;51.17;100469.97;5038142;28;1910;-59
2022/08/02 10:13:04;;;;;;;;;;;;;;;17.49;50.71;100450.69;5037305;28;903;-59
2022/08/02 10:15:29;;;;;;;;;;;;;;;17.41;50.64;100446.63;5037824;28;962;-58
2022/08/02 10:17:54;;;;;;;;;;;;;;;17.39;50.44;100452.41;5019882;28;978;-59
2022/08/02 10:20:20;;;;;;;;;;;;;;;17.39;50.21;100457.91;5038589;28;1164;-61
2022/08/02 10:22:46;;;;;;;;;;;;;;;17.38;50.14;100453.50;5019911;28;1022;-60
2022/08/02 10:25:11;;;;;;;;;;;;;;;17.46;49.90;100457.59;5042773;28;918;-59
2022/08/02 10:27:37;;;;;;;;;;;;;;;17.82;54.92;100464.69;5036180;28;1025;-63
2022/08/02 10:30:02;;;;;;;;;;;;;;;15.81;59.39;100458.31;5020041;28;1009;-60
2022/08/02 10:32:32;;;;;;;;;;;;;;;17.09;53.36;100448.75;5037529;28;1910;-59
2022/08/02 10:34:59;;;;;;;;;;;;;;;17.26;51.57;100459.38;5040502;28;994;-65
2022/08/02 10:37:28;;;;;;;;;;;;;;;17.77;52.42;100447.13;5035474;28;946;-60
2022/08/02 10:39:54;;;;;;;;;;;;;;;15.16;60.70;100441.56;5037654;28;1128;-60
2022/08/02 10:42:40;;;;;;;;;;;;;;;17.94;57.59;100448.66;5037463;28;1049;-59
2022/08/02 10:45:09;;;;;;;;;;;;;;;17.74;59.48;100453.22;5021465;28;1613;-60
2022/08/02 10:47:34;;;;;;;;;;;;;;;15.47;63.90;100463.50;5035793;28;986;-59
2022/08/02 10:50:00;;;;;;;;;;;;;;;17.14;55.47;100447.09;5013938;28;1079;-58
2022/08/02 10:52:25;;;;;;;;;;;;;;;18.05;56.28;100441.13;5037366;28;1906;-63
2022/08/02 10:54:54;;;;;;;;;;;;;;;14.93;63.42;100449.19;5036313;28;1124;-61
2022/08/02 10:57:21;;;;;;;;;;;;;;;17.88;58.55;100452.53;5036953;28;978;-61
2022/08/02 10:59:47;;;;;;;;;;;;;;;17.27;61.18;100438.22;5038352;28;1159;-62
2022/08/02 11:02:12;;;;;;;;;;;;;;;15.79;63.13;100454.16;5036854;28;1085;-64
2022/08/02 11:04:38;;;;;;;;;;;;;;;17.09;55.88;100458.94;5036736;28;1144;-62
2022/08/02 11:07:32;;;;;;;;;;;;;;;17.28;53.74;100464.59;5036783;28;1104;-60
2022/08/02 11:09:59;;;;;;;;;;;;;;;17.34;52.28;100471.69;5016451;28;1395;-62
2022/08/02 11:12:26;;;;;;;;;;;;;;;17.50;52.34;100460.56;5013655;28;8682;-61
2022/08/02 11:15:04;;;;;;;;;;;;;;;16.09;60.03;100447.84;4972941;28;8805;-64
2022/08/02 11:18:05;;;;;;;;;;;;;;;17.58;59.10;100457.19;4977388;28;8434;-59
2022/08/02 11:20:30;;;;;;;;;;;;;;;18.10;59.54;100457.56;4936451;29;1287;-61
2022/08/02 11:22:57;;;;;;;;;;;;;;;15.18;65.60;100459.38;4978189;28;975;-65
2022/08/02 11:25:25;;;;;;;;;;;;;;;17.00;56.82;100447.75;4992583;28;1364;-56
2022/08/02 11:27:51;;;;;;;;;;;;;;;17.30;53.84;100445.88;4995199;28;1223;-58
2022/08/02 11:30:18;;;;;;;;;;;;;;;17.37;52.68;100454.63;4983281;28;1911;-58
2022/08/02 11:32:43;;;;;;;;;;;;;;;17.36;51.91;100464.00;4996941;28;990;-60
2022/08/02 11:35:09;;;;;;;;;;;;;;;17.38;51.59;100466.44;4996926;28;1023;-60
2022/08/02 11:37:35;;;;;;;;;;;;;;;17.43;50.81;100464.47;4995719;28;1041;-62
2022/08/02 11:40:04;;;;;;;;;;;;;;;17.45;50.25;100456.75;4983189;28;1301;-58
2022/08/02 11:42:52;;;;;;;;;;;;;;;17.41;50.27;100447.44;5006619;28;1073;-57
2022/08/02 11:45:18;;;;;;;;;;;;;;;17.41;49.92;100449.38;4996210;28;1117;-58
2022/08/02 11:47:47;;;;;;;;;;;;;;;17.89;51.28;100466.00;5000948;28;1169;-55
2022/08/02 11:50:13;;;;;;;;;;;;;;;15.32;60.74;100454.19;4991321;28;1109;-55
2022/08/02 11:52:38;;;;;;;;;;;;;;;17.92;56.83;100456.38;4992898;28;1910;-55
2022/08/02 11:55:07;;;;;;;;;;;;;;;18.80;57.19;100457.00;4995429;28;1185;-57
2022/08/02 11:57:33;;;;;;;;;;;;;;;15.05;64.55;100449.75;4995204;28;1260;-58
2022/08/02 11:59:58;;;;;;;;;;;;;;;16.95;56.62;100453.25;4995097;28;1265;-58
2022/08/02 12:02:24;;;;;;;;;;;;;;;17.41;54.06;100463.94;4995346;28;1017;-58
2022/08/02 12:04:51;;;;;;;;;;;;;;;15.29;62.44;100456.63;4996086;28;1114;-57
2022/08/02 12:07:16;;;;;;;;;;;;;;;18.04;60.61;100476.06;4990089;28;1233;-60
2022/08/02 12:09:42;;;;;;;;;;;;;;;17.42;58.31;100459.28;5010147;28;1160;-60
2022/08/02 12:12:07;;;;;;;;;;;;;;;15.17;66.70;100462.38;4993618;28;1906;-62
2022/08/02 12:14:33;;;;;;;;;;;;;;;15.56;67.42;100475.56;4991990;28;1193;-63
2022/08/02 12:19:59;;;;;;;;;;;;;;;18.10;65.91;100466.66;4912031;29;1029;-62
2022/08/02 12:22:25;;;;;;;;;;;;;;;15.73;68.09;100462.38;4969582;28;1116;-60
2022/08/02 12:24:51;;;;;;;;;;;;;;;15.08;69.58;100456.59;4992041;28;1102;-63
2022/08/02 12:27:30;;;;;;;;;;;;;;;15.71;67.09;100447.31;4990472;28;996;-65
2022/08/02 12:29:59;;;;;;;;;;;;;;;16.88;69.59;100447.22;4995208;28;876;-61
2022/08/02 12:32:24;;;;;;;;;;;;;;;17.15;63.79;100459.72;4989060;28;1975;-59
2022/08/02 12:35:22;;;;;;;;;;;;;;;17.43;59.18;100447.16;4991661;28;948;-61
2022/08/02 12:37:48;;;;;;;;;;;;;;;17.55;55.62;100439.34;4969431;28;1330;-64
2022/08/02 12:40:17;;;;;;;;;;;;;;;17.54;54.05;100447.88;4981424;28;991;-63
2022/08/02 12:42:46;;;;;;;;;;;;;;;17.53;52.96;100432.50;5009756;28;1073;-58
2022/08/02 12:45:11;;;;;;;;;;;;;;;17.55;52.13;100441.28;4988511;28;1691;-64
2022/08/02 12:47:47;;;;;;;;;;;;;;;17.54;51.46;100447.88;4989128;28;1212;-63
2022/08/02 12:50:17;;;;;;;;;;;;;;;17.50;51.28;100433.91;4988506;28;824;-60
2022/08/02 12:52:42;;;;;;;;;;;;;;;17.83;51.68;100444.34;4992347;28;1157;-63